Terminal Aerodrome Forecast
Issued by NWS Grand Rapids, MI

Home | Current Version | Previous Version | Text Only | Print | Product List | Glossary On
Versions: 1 2 3 4 5 6 7 8 9 10 11 12 13 14 15 16 17
000
FTUS43 KGRR 270529
TAFGRR
TAF
KGRR 270529Z 2706/2806 22008KT P6SM BKN080
     FM271100 24014G20KT P6SM BKN080
     FM271600 26016G23KT P6SM BKN080
     FM272000 26012G18KT P6SM VCSH OVC040
     FM280000 25006KT P6SM VCSH OVC040
     FM280400 24004KT 5SM BR VCSH OVC015=

USA.gov is the U.S. government's official web portal to all federal, state and local government web resources and services.